sensor_id;sensor_type;location;lat;lon;timestamp;pressure;altitude;pressure_sealevel;temperature;humidity
48156;BME280;35568;48.104;11.782;2023-04-27T00:01:30;95425.29;;;5.99;49.23
48156;BME280;35568;48.104;11.782;2023-04-27T00:03:57;95423.58;;;5.96;49.47
48156;BME280;35568;48.104;11.782;2023-04-27T00:06:24;95418.62;;;6.03;49.91
48156;BME280;35568;48.104;11.782;2023-04-27T00:08:50;95416.71;;;6.02;50.06
48156;BME280;35568;48.104;11.782;2023-04-27T00:11:18;95417.05;;;6.03;49.99
48156;BME280;35568;48.104;11.782;2023-04-27T00:13:44;95417.55;;;5.93;49.97
48156;BME280;35568;48.104;11.782;2023-04-27T00:16:11;95416.89;;;5.77;49.85
48156;BME280;35568;48.104;11.782;2023-04-27T00:18:38;95415.28;;;6.12;49.79
48156;BME280;35568;48.104;11.782;2023-04-27T00:21:05;95412.89;;;5.46;50.04
48156;BME280;35568;48.104;11.782;2023-04-27T00:23:32;95413.32;;;5.79;49.86
48156;BME280;35568;48.104;11.782;2023-04-27T00:25:59;95409.71;;;5.64;50.13
48156;BME280;35568;48.104;11.782;2023-04-27T00:28:26;95409.05;;;5.22;50.60
48156;BME280;35568;48.104;11.782;2023-04-27T00:30:53;95405.49;;;5.40;50.76
48156;BME280;35568;48.104;11.782;2023-04-27T00:33:20;95406.37;;;5.39;50.99
48156;BME280;35568;48.104;11.782;2023-04-27T00:35:46;95404.89;;;5.40;50.98
48156;BME280;35568;48.104;11.782;2023-04-27T00:38:13;95402.56;;;5.31;50.99
48156;BME280;35568;48.104;11.782;2023-04-27T00:40:40;95402.42;;;5.47;50.82
48156;BME280;35568;48.104;11.782;2023-04-27T00:43:07;95404.87;;;5.54;50.60
48156;BME280;35568;48.104;11.782;2023-04-27T00:45:36;95403.06;;;5.50;50.77
48156;BME280;35568;48.104;11.782;2023-04-27T00:48:07;95401.72;;;5.47;50.76
48156;BME280;35568;48.104;11.782;2023-04-27T00:50:34;95401.47;;;5.64;50.83
48156;BME280;35568;48.104;11.782;2023-04-27T00:53:01;95403.11;;;5.86;50.33
48156;BME280;35568;48.104;11.782;2023-04-27T00:55:28;95402.63;;;5.68;49.96
48156;BME280;35568;48.104;11.782;2023-04-27T00:57:55;95403.16;;;6.06;49.91
48156;BME280;35568;48.104;11.782;2023-04-27T01:00:22;95403.16;;;5.87;49.65
48156;BME280;35568;48.104;11.782;2023-04-27T01:02:49;95403.41;;;6.20;49.43
48156;BME280;35568;48.104;11.782;2023-04-27T01:05:17;95402.88;;;6.19;49.46
48156;BME280;35568;48.104;11.782;2023-04-27T01:07:45;95402.73;;;5.93;49.56
48156;BME280;35568;48.104;11.782;2023-04-27T01:10:12;95404.25;;;5.97;49.43
48156;BME280;35568;48.104;11.782;2023-04-27T01:12:39;95403.89;;;6.02;49.48
48156;BME280;35568;48.104;11.782;2023-04-27T01:15:07;95403.69;;;5.76;49.71
48156;BME280;35568;48.104;11.782;2023-04-27T01:17:34;95407.09;;;5.34;49.63
48156;BME280;35568;48.104;11.782;2023-04-27T01:20:01;95401.78;;;5.91;49.35
48156;BME280;35568;48.104;11.782;2023-04-27T01:22:28;95401.72;;;6.06;49.53
48156;BME280;35568;48.104;11.782;2023-04-27T01:24:55;95404.06;;;5.97;49.56
48156;BME280;35568;48.104;11.782;2023-04-27T01:27:22;95405.21;;;6.27;49.62
48156;BME280;35568;48.104;11.782;2023-04-27T01:29:49;95404.61;;;5.97;49.86
48156;BME280;35568;48.104;11.782;2023-04-27T01:32:16;95406.06;;;5.64;49.67
48156;BME280;35568;48.104;11.782;2023-04-27T01:34:43;95407.07;;;6.20;49.70
48156;BME280;35568;48.104;11.782;2023-04-27T01:37:10;95409.70;;;5.89;50.08
48156;BME280;35568;48.104;11.782;2023-04-27T01:39:37;95408.53;;;5.80;50.48
48156;BME280;35568;48.104;11.782;2023-04-27T01:42:05;95410.12;;;5.87;50.44
48156;BME280;35568;48.104;11.782;2023-04-27T01:44:32;95408.55;;;5.86;50.47
48156;BME280;35568;48.104;11.782;2023-04-27T01:46:58;95405.85;;;5.44;50.31
48156;BME280;35568;48.104;11.782;2023-04-27T01:49:25;95405.96;;;5.84;50.06
48156;BME280;35568;48.104;11.782;2023-04-27T01:51:52;95408.66;;;5.81;50.18
48156;BME280;35568;48.104;11.782;2023-04-27T01:54:19;95411.49;;;5.80;50.10
48156;BME280;35568;48.104;11.782;2023-04-27T01:56:46;95414.94;;;5.67;50.52
48156;BME280;35568;48.104;11.782;2023-04-27T01:59:12;95415.99;;;5.42;50.66
48156;BME280;35568;48.104;11.782;2023-04-27T02:01:39;95417.95;;;5.81;50.63
48156;BME280;35568;48.104;11.782;2023-04-27T02:04:06;95419.35;;;6.03;50.24
48156;BME280;35568;48.104;11.782;2023-04-27T02:06:33;95420.80;;;5.68;49.86
48156;BME280;35568;48.104;11.782;2023-04-27T02:09:00;95420.60;;;5.98;49.70
48156;BME280;35568;48.104;11.782;2023-04-27T02:11:26;95422.46;;;5.94;49.83
48156;BME280;35568;48.104;11.782;2023-04-27T02:13:53;95424.14;;;5.89;49.99
48156;BME280;35568;48.104;11.782;2023-04-27T02:18:34;95427.22;;;6.49;50.18
48156;BME280;35568;48.104;11.782;2023-04-27T02:21:06;95427.66;;;5.93;49.94
48156;BME280;35568;48.104;11.782;2023-04-27T02:23:33;95430.25;;;6.43;50.06
48156;BME280;35568;48.104;11.782;2023-04-27T02:26:00;95430.10;;;5.98;49.98
48156;BME280;35568;48.104;11.782;2023-04-27T02:28:27;95433.37;;;5.80;49.88
48156;BME280;35568;48.104;11.782;2023-04-27T02:30:54;95435.91;;;5.85;50.39
48156;BME280;35568;48.104;11.782;2023-04-27T02:33:21;95434.57;;;5.55;50.78
48156;BME280;35568;48.104;11.782;2023-04-27T02:35:47;95434.51;;;5.43;51.13
48156;BME280;35568;48.104;11.782;2023-04-27T02:38:15;95431.93;;;5.77;50.78
48156;BME280;35568;48.104;11.782;2023-04-27T02:40:42;95432.92;;;5.89;50.57
48156;BME280;35568;48.104;11.782;2023-04-27T02:43:08;95436.42;;;5.63;50.91
48156;BME280;35568;48.104;11.782;2023-04-27T02:45:36;95438.55;;;5.47;50.71
48156;BME280;35568;48.104;11.782;2023-04-27T02:48:03;95441.45;;;5.29;51.22
48156;BME280;35568;48.104;11.782;2023-04-27T02:50:31;95436.34;;;4.93;51.45
48156;BME280;35568;48.104;11.782;2023-04-27T02:52:57;95437.86;;;5.20;51.37
48156;BME280;35568;48.104;11.782;2023-04-27T02:55:24;95436.76;;;5.19;51.63
48156;BME280;35568;48.104;11.782;2023-04-27T02:57:51;95437.27;;;5.34;51.69
48156;BME280;35568;48.104;11.782;2023-04-27T03:03:01;95438.48;;;5.41;50.44
48156;BME280;35568;48.104;11.782;2023-04-27T03:05:28;95441.22;;;5.41;50.71
48156;BME280;35568;48.104;11.782;2023-04-27T03:07:54;95441.00;;;5.69;50.48
48156;BME280;35568;48.104;11.782;2023-04-27T03:10:21;95442.27;;;5.46;50.48
48156;BME280;35568;48.104;11.782;2023-04-27T03:12:48;95440.95;;;5.43;50.58
48156;BME280;35568;48.104;11.782;2023-04-27T03:15:15;95445.09;;;4.87;51.18
48156;BME280;35568;48.104;11.782;2023-04-27T03:17:42;95444.31;;;4.80;51.31
48156;BME280;35568;48.104;11.782;2023-04-27T03:20:10;95442.90;;;5.17;51.15
48156;BME280;35568;48.104;11.782;2023-04-27T03:22:37;95444.31;;;4.70;51.39
48156;BME280;35568;48.104;11.782;2023-04-27T03:25:05;95445.05;;;4.57;51.85
48156;BME280;35568;48.104;11.782;2023-04-27T03:27:32;95443.25;;;4.32;51.90
48156;BME280;35568;48.104;11.782;2023-04-27T03:29:58;95444.69;;;4.87;51.56
48156;BME280;35568;48.104;11.782;2023-04-27T03:32:25;95452.57;;;4.64;51.67
48156;BME280;35568;48.104;11.782;2023-04-27T03:34:52;95454.98;;;4.78;51.62
48156;BME280;35568;48.104;11.782;2023-04-27T03:37:19;95453.25;;;5.03;51.65
48156;BME280;35568;48.104;11.782;2023-04-27T03:39:46;95452.67;;;4.82;51.28
48156;BME280;35568;48.104;11.782;2023-04-27T03:42:13;95455.37;;;4.94;50.92
48156;BME280;35568;48.104;11.782;2023-04-27T03:44:40;95454.62;;;4.74;50.94
48156;BME280;35568;48.104;11.782;2023-04-27T03:47:07;95458.17;;;4.75;51.35
48156;BME280;35568;48.104;11.782;2023-04-27T03:49:34;95459.79;;;4.59;51.69
48156;BME280;35568;48.104;11.782;2023-04-27T03:52:01;95458.92;;;4.95;51.27
48156;BME280;35568;48.104;11.782;2023-04-27T03:54:30;95456.42;;;5.07;50.73
48156;BME280;35568;48.104;11.782;2023-04-27T03:56:57;95457.59;;;4.98;51.02
48156;BME280;35568;48.104;11.782;2023-04-27T03:59:24;95452.63;;;4.64;51.51
48156;BME280;35568;48.104;11.782;2023-04-27T04:01:51;95451.97;;;4.70;51.69
48156;BME280;35568;48.104;11.782;2023-04-27T04:04:17;95454.43;;;4.79;51.60
48156;BME280;35568;48.104;11.782;2023-04-27T04:06:44;95458.50;;;4.78;51.77
48156;BME280;35568;48.104;11.782;2023-04-27T04:09:11;95458.13;;;5.18;51.67
48156;BME280;35568;48.104;11.782;2023-04-27T04:11:38;95464.21;;;5.10;51.45
48156;BME280;35568;48.104;11.782;2023-04-27T04:14:06;95471.05;;;5.25;51.35
48156;BME280;35568;48.104;11.782;2023-04-27T04:16:32;95475.18;;;5.13;51.28
48156;BME280;35568;48.104;11.782;2023-04-27T04:18:59;95478.73;;;5.11;51.30
48156;BME280;35568;48.104;11.782;2023-04-27T04:21:26;95477.94;;;4.96;51.79
48156;BME280;35568;48.104;11.782;2023-04-27T04:23:53;95478.58;;;5.00;52.00
48156;BME280;35568;48.104;11.782;2023-04-27T04:26:20;95481.73;;;5.00;51.85
48156;BME280;35568;48.104;11.782;2023-04-27T04:28:47;95486.43;;;5.12;52.18
48156;BME280;35568;48.104;11.782;2023-04-27T04:31:13;95490.36;;;5.13;51.76
48156;BME280;35568;48.104;11.782;2023-04-27T04:33:40;95492.83;;;5.16;51.80
48156;BME280;35568;48.104;11.782;2023-04-27T04:36:07;95498.00;;;5.35;51.91
48156;BME280;35568;48.104;11.782;2023-04-27T04:38:34;95499.73;;;4.91;52.08
48156;BME280;35568;48.104;11.782;2023-04-27T04:41:01;95501.61;;;5.55;51.75
48156;BME280;35568;48.104;11.782;2023-04-27T04:43:28;95508.34;;;5.70;51.76
48156;BME280;35568;48.104;11.782;2023-04-27T04:45:55;95510.38;;;5.79;51.54
48156;BME280;35568;48.104;11.782;2023-04-27T04:48:22;95514.48;;;5.74;51.83
48156;BME280;35568;48.104;11.782;2023-04-27T04:50:49;95517.63;;;5.43;51.88
48156;BME280;35568;48.104;11.782;2023-04-27T04:53:16;95518.00;;;5.81;51.63
48156;BME280;35568;48.104;11.782;2023-04-27T04:55:43;95519.90;;;5.67;51.40
48156;BME280;35568;48.104;11.782;2023-04-27T04:58:10;95515.13;;;6.45;50.99
48156;BME280;35568;48.104;11.782;2023-04-27T05:00:37;95513.87;;;6.43;50.69
48156;BME280;35568;48.104;11.782;2023-04-27T05:03:04;95509.87;;;6.11;50.71
48156;BME280;35568;48.104;11.782;2023-04-27T05:05:31;95513.80;;;6.24;50.33
48156;BME280;35568;48.104;11.782;2023-04-27T05:07:57;95519.22;;;6.47;50.01
48156;BME280;35568;48.104;11.782;2023-04-27T05:10:24;95520.15;;;6.96;49.92
48156;BME280;35568;48.104;11.782;2023-04-27T05:12:51;95520.21;;;7.15;49.27
48156;BME280;35568;48.104;11.782;2023-04-27T05:15:18;95522.39;;;6.83;49.27
48156;BME280;35568;48.104;11.782;2023-04-27T05:17:45;95523.51;;;7.48;48.89
48156;BME280;35568;48.104;11.782;2023-04-27T05:20:12;95523.76;;;7.15;48.87
48156;BME280;35568;48.104;11.782;2023-04-27T05:22:39;95525.12;;;7.31;48.56
48156;BME280;35568;48.104;11.782;2023-04-27T05:25:06;95526.81;;;7.40;48.41
48156;BME280;35568;48.104;11.782;2023-04-27T05:27:33;95523.38;;;7.54;48.30
48156;BME280;35568;48.104;11.782;2023-04-27T05:30:00;95524.09;;;7.77;48.01
48156;BME280;35568;48.104;11.782;2023-04-27T05:32:27;95523.92;;;7.47;48.49
48156;BME280;35568;48.104;11.782;2023-04-27T05:34:54;95526.88;;;7.29;48.90
48156;BME280;35568;48.104;11.782;2023-04-27T05:37:21;95524.07;;;7.28;48.89
48156;BME280;35568;48.104;11.782;2023-04-27T05:39:47;95522.96;;;7.82;48.54
48156;BME280;35568;48.104;11.782;2023-04-27T05:42:14;95522.75;;;7.93;48.12
48156;BME280;35568;48.104;11.782;2023-04-27T05:44:41;95523.29;;;7.99;48.07
48156;BME280;35568;48.104;11.782;2023-04-27T05:47:08;95523.99;;;8.17;47.94
48156;BME280;35568;48.104;11.782;2023-04-27T05:49:35;95528.93;;;8.54;47.60
48156;BME280;35568;48.104;11.782;2023-04-27T05:52:02;95534.22;;;8.25;47.73
48156;BME280;35568;48.104;11.782;2023-04-27T05:54:29;95541.73;;;7.96;46.86
48156;BME280;35568;48.104;11.782;2023-04-27T05:56:56;95546.24;;;8.77;46.12
48156;BME280;35568;48.104;11.782;2023-04-27T05:59:22;95546.43;;;8.31;46.54
48156;BME280;35568;48.104;11.782;2023-04-27T06:01:50;95545.91;;;8.41;46.56
48156;BME280;35568;48.104;11.782;2023-04-27T06:04:16;95549.34;;;8.41;46.70
48156;BME280;35568;48.104;11.782;2023-04-27T06:06:43;95540.43;;;8.71;46.37
48156;BME280;35568;48.104;11.782;2023-04-27T06:09:10;95538.60;;;9.03;45.89
48156;BME280;35568;48.104;11.782;2023-04-27T06:11:38;95538.10;;;9.39;45.46
48156;BME280;35568;48.104;11.782;2023-04-27T06:14:04;95534.71;;;9.61;45.34
48156;BME280;35568;48.104;11.782;2023-04-27T06:16:31;95533.42;;;9.63;44.79
48156;BME280;35568;48.104;11.782;2023-04-27T06:18:58;95537.22;;;9.63;45.39
48156;BME280;35568;48.104;11.782;2023-04-27T06:21:25;95542.88;;;9.68;44.44
48156;BME280;35568;48.104;11.782;2023-04-27T06:23:52;95542.29;;;9.78;44.48
48156;BME280;35568;48.104;11.782;2023-04-27T06:26:19;95541.42;;;10.07;44.16
48156;BME280;35568;48.104;11.782;2023-04-27T06:28:46;95545.80;;;10.31;44.00
48156;BME280;35568;48.104;11.782;2023-04-27T06:31:12;95549.92;;;10.40;43.93
48156;BME280;35568;48.104;11.782;2023-04-27T06:33:39;95551.49;;;10.68;43.38
48156;BME280;35568;48.104;11.782;2023-04-27T06:36:06;95554.47;;;10.46;43.50
48156;BME280;35568;48.104;11.782;2023-04-27T06:38:34;95554.43;;;10.51;43.36
48156;BME280;35568;48.104;11.782;2023-04-27T06:41:00;95554.23;;;10.84;43.32
48156;BME280;35568;48.104;11.782;2023-04-27T06:43:28;95557.18;;;10.36;43.10
48156;BME280;35568;48.104;11.782;2023-04-27T06:45:56;95556.84;;;10.98;42.58
48156;BME280;35568;48.104;11.782;2023-04-27T06:48:22;95555.39;;;11.50;42.27
48156;BME280;35568;48.104;11.782;2023-04-27T06:50:49;95554.57;;;11.28;42.08
48156;BME280;35568;48.104;11.782;2023-04-27T06:53:16;95552.57;;;11.25;41.65
48156;BME280;35568;48.104;11.782;2023-04-27T06:55:43;95555.10;;;11.43;41.93
48156;BME280;35568;48.104;11.782;2023-04-27T06:58:10;95559.07;;;11.10;42.01
48156;BME280;35568;48.104;11.782;2023-04-27T07:00:37;95556.55;;;11.22;42.09
48156;BME280;35568;48.104;11.782;2023-04-27T07:03:03;95557.71;;;11.62;42.04
48156;BME280;35568;48.104;11.782;2023-04-27T07:05:32;95559.97;;;11.83;41.66
48156;BME280;35568;48.104;11.782;2023-04-27T07:07:58;95553.89;;;11.89;41.46
48156;BME280;35568;48.104;11.782;2023-04-27T07:10:26;95555.22;;;12.31;41.34
48156;BME280;35568;48.104;11.782;2023-04-27T07:12:54;95557.36;;;12.48;41.19
48156;BME280;35568;48.104;11.782;2023-04-27T07:15:20;95557.97;;;12.51;40.56
48156;BME280;35568;48.104;11.782;2023-04-27T07:17:48;95556.59;;;12.37;40.75
48156;BME280;35568;48.104;11.782;2023-04-27T07:20:16;95556.52;;;12.44;40.94
48156;BME280;35568;48.104;11.782;2023-04-27T07:22:43;95556.12;;;12.58;40.26
48156;BME280;35568;48.104;11.782;2023-04-27T07:25:11;95560.06;;;12.73;40.18
48156;BME280;35568;48.104;11.782;2023-04-27T07:27:38;95558.44;;;12.58;40.10
48156;BME280;35568;48.104;11.782;2023-04-27T07:30:05;95556.33;;;13.00;40.02
48156;BME280;35568;48.104;11.782;2023-04-27T07:32:34;95557.88;;;13.28;39.93
48156;BME280;35568;48.104;11.782;2023-04-27T07:35:01;95558.53;;;12.78;40.01
48156;BME280;35568;48.104;11.782;2023-04-27T07:37:28;95556.68;;;12.63;40.07
48156;BME280;35568;48.104;11.782;2023-04-27T07:39:55;95557.85;;;12.83;40.07
48156;BME280;35568;48.104;11.782;2023-04-27T07:42:22;95557.49;;;13.12;39.82
48156;BME280;35568;48.104;11.782;2023-04-27T07:44:48;95558.62;;;13.56;39.53
48156;BME280;35568;48.104;11.782;2023-04-27T07:47:15;95562.99;;;13.46;39.52
48156;BME280;35568;48.104;11.782;2023-04-27T07:49:42;95562.00;;;13.38;39.12
48156;BME280;35568;48.104;11.782;2023-04-27T07:52:09;95559.97;;;13.47;39.01
48156;BME280;35568;48.104;11.782;2023-04-27T07:54:35;95563.37;;;13.69;38.64
48156;BME280;35568;48.104;11.782;2023-04-27T07:57:07;95559.90;;;13.92;38.14
48156;BME280;35568;48.104;11.782;2023-04-27T07:59:34;95559.41;;;14.31;37.86
48156;BME280;35568;48.104;11.782;2023-04-27T08:02:01;95554.33;;;14.61;37.05
48156;BME280;35568;48.104;11.782;2023-04-27T08:04:28;95559.80;;;13.83;36.70
48156;BME280;35568;48.104;11.782;2023-04-27T08:06:55;95561.20;;;13.98;36.57
48156;BME280;35568;48.104;11.782;2023-04-27T08:09:22;95565.79;;;13.91;37.54
48156;BME280;35568;48.104;11.782;2023-04-27T08:11:48;95569.01;;;14.17;36.62
48156;BME280;35568;48.104;11.782;2023-04-27T08:14:15;95566.70;;;14.81;36.14
48156;BME280;35568;48.104;11.782;2023-04-27T08:16:43;95565.25;;;14.54;35.20
48156;BME280;35568;48.104;11.782;2023-04-27T08:19:10;95565.10;;;14.59;35.97
48156;BME280;35568;48.104;11.782;2023-04-27T08:21:37;95562.62;;;15.46;35.61
48156;BME280;35568;48.104;11.782;2023-04-27T08:24:05;95563.02;;;15.57;35.35
48156;BME280;35568;48.104;11.782;2023-04-27T08:26:32;95563.04;;;15.44;34.41
48156;BME280;35568;48.104;11.782;2023-04-27T08:29:00;95566.66;;;15.08;34.17
48156;BME280;35568;48.104;11.782;2023-04-27T08:31:27;95567.66;;;15.65;34.23
48156;BME280;35568;48.104;11.782;2023-04-27T08:33:54;95565.85;;;15.75;33.34
48156;BME280;35568;48.104;11.782;2023-04-27T08:36:22;95573.30;;;15.01;34.58
48156;BME280;35568;48.104;11.782;2023-04-27T08:38:49;95573.49;;;15.14;34.57
48156;BME280;35568;48.104;11.782;2023-04-27T08:41:18;95573.39;;;15.84;34.44
48156;BME280;35568;48.104;11.782;2023-04-27T08:43:45;95574.49;;;16.42;33.06
48156;BME280;35568;48.104;11.782;2023-04-27T08:46:12;95576.63;;;15.94;33.22
48156;BME280;35568;48.104;11.782;2023-04-27T08:48:39;95574.24;;;16.31;32.55
48156;BME280;35568;48.104;11.782;2023-04-27T08:51:08;95575.62;;;16.67;33.39
48156;BME280;35568;48.104;11.782;2023-04-27T08:53:36;95572.07;;;16.17;32.59
48156;BME280;35568;48.104;11.782;2023-04-27T08:56:03;95572.56;;;16.89;31.98
48156;BME280;35568;48.104;11.782;2023-04-27T08:58:38;95574.70;;;17.00;31.52
48156;BME280;35568;48.104;11.782;2023-04-27T09:01:06;95573.27;;;17.64;30.93
48156;BME280;35568;48.104;11.782;2023-04-27T09:03:33;95572.08;;;17.80;30.50
48156;BME280;35568;48.104;11.782;2023-04-27T09:06:01;95570.54;;;18.49;30.43
48156;BME280;35568;48.104;11.782;2023-04-27T09:08:28;95566.33;;;18.37;29.74
48156;BME280;35568;48.104;11.782;2023-04-27T09:11:06;95563.83;;;18.51;29.69
48156;BME280;35568;48.104;11.782;2023-04-27T09:13:34;95562.74;;;18.20;30.25
48156;BME280;35568;48.104;11.782;2023-04-27T09:16:01;95553.66;;;19.21;29.37
48156;BME280;35568;48.104;11.782;2023-04-27T09:18:28;95551.61;;;18.91;29.10
48156;BME280;35568;48.104;11.782;2023-04-27T09:20:55;95551.52;;;19.22;28.31
48156;BME280;35568;48.104;11.782;2023-04-27T09:23:25;95552.72;;;19.26;27.14
48156;BME280;35568;48.104;11.782;2023-04-27T09:25:52;95552.11;;;19.73;27.31
48156;BME280;35568;48.104;11.782;2023-04-27T09:28:20;95552.73;;;19.54;26.99
48156;BME280;35568;48.104;11.782;2023-04-27T09:30:51;95548.85;;;19.06;27.23
48156;BME280;35568;48.104;11.782;2023-04-27T09:33:22;95545.60;;;18.82;26.89
48156;BME280;35568;48.104;11.782;2023-04-27T09:35:50;95546.78;;;19.03;27.11
48156;BME280;35568;48.104;11.782;2023-04-27T09:38:18;95540.97;;;20.09;26.44
48156;BME280;35568;48.104;11.782;2023-04-27T09:40:46;95540.48;;;20.00;26.07
48156;BME280;35568;48.104;11.782;2023-04-27T09:43:14;95539.10;;;20.36;25.20
48156;BME280;35568;48.104;11.782;2023-04-27T09:45:42;95534.67;;;20.35;26.47
48156;BME280;35568;48.104;11.782;2023-04-27T09:48:11;95530.71;;;19.24;27.15
48156;BME280;35568;48.104;11.782;2023-04-27T09:50:39;95528.18;;;19.93;26.78
48156;BME280;35568;48.104;11.782;2023-04-27T09:53:08;95528.14;;;20.08;26.33
48156;BME280;35568;48.104;11.782;2023-04-27T09:55:39;95524.16;;;19.94;26.03
48156;BME280;35568;48.104;11.782;2023-04-27T09:58:21;95522.97;;;18.83;25.24
48156;BME280;35568;48.104;11.782;2023-04-27T10:01:01;95528.18;;;17.45;27.01
48156;BME280;35568;48.104;11.782;2023-04-27T10:03:38;95525.14;;;17.79;27.78
48156;BME280;35568;48.104;11.782;2023-04-27T10:07:02;95518.51;;;18.90;27.87
48156;BME280;35568;48.104;11.782;2023-04-27T10:09:35;95517.60;;;19.86;26.89
48156;BME280;35568;48.104;11.782;2023-04-27T10:12:18;95517.42;;;19.79;26.25
48156;BME280;35568;48.104;11.782;2023-04-27T10:14:50;95518.59;;;20.66;26.13
48156;BME280;35568;48.104;11.782;2023-04-27T10:17:22;95512.92;;;21.00;25.18
48156;BME280;35568;48.104;11.782;2023-04-27T10:19:55;95514.45;;;20.16;25.55
48156;BME280;35568;48.104;11.782;2023-04-27T10:22:23;95507.82;;;21.03;24.02
48156;BME280;35568;48.104;11.782;2023-04-27T10:24:51;95504.31;;;21.25;23.48
48156;BME280;35568;48.104;11.782;2023-04-27T10:27:19;95501.63;;;21.28;24.23
48156;BME280;35568;48.104;11.782;2023-04-27T10:29:47;95504.22;;;21.55;23.77
48156;BME280;35568;48.104;11.782;2023-04-27T10:32:19;95505.01;;;21.61;24.19
48156;BME280;35568;48.104;11.782;2023-04-27T10:34:46;95504.28;;;20.74;25.30
48156;BME280;35568;48.104;11.782;2023-04-27T10:37:13;95500.62;;;20.36;25.47
48156;BME280;35568;48.104;11.782;2023-04-27T10:39:43;95493.36;;;20.50;25.98
48156;BME280;35568;48.104;11.782;2023-04-27T10:42:10;95495.39;;;19.60;26.47
48156;BME280;35568;48.104;11.782;2023-04-27T10:44:38;95498.03;;;19.51;26.23
48156;BME280;35568;48.104;11.782;2023-04-27T10:47:13;95500.38;;;19.32;26.78
48156;BME280;35568;48.104;11.782;2023-04-27T10:49:41;95496.75;;;19.72;26.96
48156;BME280;35568;48.104;11.782;2023-04-27T10:52:08;95495.40;;;20.54;25.67
48156;BME280;35568;48.104;11.782;2023-04-27T10:54:35;95496.29;;;21.71;23.76
48156;BME280;35568;48.104;11.782;2023-04-27T10:57:04;95495.68;;;22.42;23.51
48156;BME280;35568;48.104;11.782;2023-04-27T10:59:33;95492.69;;;22.67;23.21
48156;BME280;35568;48.104;11.782;2023-04-27T11:02:00;95495.36;;;22.92;22.40
48156;BME280;35568;48.104;11.782;2023-04-27T11:04:36;95493.75;;;21.75;23.38
48156;BME280;35568;48.104;11.782;2023-04-27T11:07:02;95493.50;;;20.45;25.20
48156;BME280;35568;48.104;11.782;2023-04-27T11:09:29;95493.34;;;20.49;24.79
48156;BME280;35568;48.104;11.782;2023-04-27T11:11:56;95493.80;;;20.30;24.68
48156;BME280;35568;48.104;11.782;2023-04-27T11:14:23;95491.30;;;19.85;25.77
48156;BME280;35568;48.104;11.782;2023-04-27T11:16:49;95495.09;;;19.86;25.67
48156;BME280;35568;48.104;11.782;2023-04-27T11:19:16;95496.01;;;20.00;26.54
48156;BME280;35568;48.104;11.782;2023-04-27T11:21:43;95495.51;;;20.42;25.87
48156;BME280;35568;48.104;11.782;2023-04-27T11:24:11;95495.42;;;19.99;25.38
48156;BME280;35568;48.104;11.782;2023-04-27T11:26:37;95495.64;;;19.57;26.38
48156;BME280;35568;48.104;11.782;2023-04-27T11:29:06;95497.94;;;19.32;26.32
48156;BME280;35568;48.104;11.782;2023-04-27T11:31:42;95498.64;;;19.27;27.01
48156;BME280;35568;48.104;11.782;2023-04-27T11:34:14;95501.32;;;19.51;26.76
48156;BME280;35568;48.104;11.782;2023-04-27T11:36:42;95501.46;;;19.27;27.00
48156;BME280;35568;48.104;11.782;2023-04-27T11:39:15;95505.90;;;19.05;26.70
48156;BME280;35568;48.104;11.782;2023-04-27T11:41:42;95502.74;;;19.27;26.80
48156;BME280;35568;48.104;11.782;2023-04-27T11:44:10;95503.45;;;19.34;26.94
48156;BME280;35568;48.104;11.782;2023-04-27T11:46:42;95501.40;;;19.32;26.76
48156;BME280;35568;48.104;11.782;2023-04-27T11:49:11;95505.17;;;19.33;27.45
48156;BME280;35568;48.104;11.782;2023-04-27T11:51:39;95505.89;;;19.25;27.08
48156;BME280;35568;48.104;11.782;2023-04-27T11:54:06;95501.62;;;18.79;27.31
48156;BME280;35568;48.104;11.782;2023-04-27T11:56:34;95498.56;;;19.10;27.37
48156;BME280;35568;48.104;11.782;2023-04-27T11:59:02;95505.10;;;18.90;27.40
48156;BME280;35568;48.104;11.782;2023-04-27T12:01:30;95506.69;;;18.40;27.53
48156;BME280;35568;48.104;11.782;2023-04-27T12:03:57;95508.20;;;18.74;27.77
48156;BME280;35568;48.104;11.782;2023-04-27T12:06:24;95509.44;;;18.92;28.22
48156;BME280;35568;48.104;11.782;2023-04-27T12:08:51;95508.55;;;18.74;27.18
48156;BME280;35568;48.104;11.782;2023-04-27T12:11:18;95508.87;;;18.92;25.94
48156;BME280;35568;48.104;11.782;2023-04-27T12:13:45;95508.61;;;19.02;25.45
48156;BME280;35568;48.104;11.782;2023-04-27T12:16:12;95509.66;;;19.29;26.02
48156;BME280;35568;48.104;11.782;2023-04-27T12:18:39;95505.05;;;19.12;25.67
48156;BME280;35568;48.104;11.782;2023-04-27T12:21:06;95502.79;;;19.80;24.83
48156;BME280;35568;48.104;11.782;2023-04-27T12:23:33;95505.58;;;19.67;25.56
48156;BME280;35568;48.104;11.782;2023-04-27T12:25:59;95511.00;;;18.44;26.96
48156;BME280;35568;48.104;11.782;2023-04-27T12:28:26;95511.19;;;18.26;26.86
48156;BME280;35568;48.104;11.782;2023-04-27T12:30:53;95512.80;;;18.55;26.73
48156;BME280;35568;48.104;11.782;2023-04-27T12:33:20;95509.53;;;18.53;27.28
48156;BME280;35568;48.104;11.782;2023-04-27T12:35:46;95511.89;;;18.22;27.38
48156;BME280;35568;48.104;11.782;2023-04-27T12:38:13;95513.05;;;18.42;27.20
48156;BME280;35568;48.104;11.782;2023-04-27T12:40:40;95509.27;;;18.51;27.14
48156;BME280;35568;48.104;11.782;2023-04-27T12:43:07;95510.96;;;18.39;27.03
48156;BME280;35568;48.104;11.782;2023-04-27T12:45:34;95511.24;;;18.71;26.39
48156;BME280;35568;48.104;11.782;2023-04-27T12:48:01;95512.52;;;18.62;26.68
48156;BME280;35568;48.104;11.782;2023-04-27T12:50:28;95510.25;;;18.84;26.78
48156;BME280;35568;48.104;11.782;2023-04-27T12:52:55;95512.96;;;18.68;27.24
48156;BME280;35568;48.104;11.782;2023-04-27T12:55:22;95511.34;;;18.99;27.59
48156;BME280;35568;48.104;11.782;2023-04-27T12:57:49;95512.85;;;19.01;26.92
48156;BME280;35568;48.104;11.782;2023-04-27T13:00:16;95510.71;;;19.04;26.44
48156;BME280;35568;48.104;11.782;2023-04-27T13:02:43;95507.86;;;19.82;26.15